x

West Moresby (46208) Wave Buoy

6:00am - Thu 30th Oct 2014 All times are PDT. -7 hours from GMT.

  • Sig Wave height 11.8ft
  • Peak Period 10s
  • Wind
    11mph, 18mph gusts
  • Sea Temp 54°f
  • Air Temp 49°f
  • Sea Pressure 997.2mb
  • West Moresby
  • West Moresby

More Historic Weather Station data

Upgrade to MSW Pro to gain access to the past 30 days of data for over 8000 Wavebouys and Weather Stations around the globe.

Join Pro

Comparision Forecast

View Surf forecast
   
Thu 10/30 6:00am 12ft 10s 11 18 mph 997.2mb 54f 49f
5:00am 12ft 10s 16 22 mph 997.2mb 54f 49f
4:00am 11ft 10s 18 22 mph 998.1mb 54f 49f
3:00am 11ft 9s 9 11 mph 999mb 54f 49f
2:00am 11ft 8s 11 16 mph 998.8mb 54f 49f
1:00am 11ft 8s 9 11 mph 1001mb 54f 49f
12:00am 11ft 8s 11 13 mph 1000.9mb 54f 50f
Wed 10/29 11:00pm 11ft 7s 7 9 mph 1001.3mb 54f 49f
10:00pm 11ft 7s 29 40 mph 1001.4mb 54f 51f
9:00pm 9.5ft 7s 13 18 mph 1002.6mb 54f 50f
8:00pm 9.5ft 7s 13 16 mph 1003.7mb 54f 49f
7:00pm 10ft 6s 16 20 mph 1004.4mb 55f 50f
6:00pm 9.5ft 11s 31 40 mph 1004mb 55f 55f
5:00pm 9ft 6s 29 36 mph 1004.9mb 55f 53f
4:00pm 9ft 8s 31 36 mph 1006.1mb 55f 54f
3:00pm 8ft 10s 27 34 mph 1006.9mb 55f 54f
2:00pm 8ft 11s 27 31 mph 1007.6mb 55f 55f
1:00pm 8.5ft 11s 25 29 mph 1008.3mb 55f 54f
12:00pm 7.5ft 10s 25 31 mph 1008.7mb 55f 53f
11:00am 8ft 9s 25 29 mph 1008.8mb 55f 53f
10:00am  -   -  22
mph
1008.7mb - 53f
9:00am 8ft 12s 18 22 mph 1008.9mb 55f 52f
8:00am 9ft 12s 16 20 mph 1008.5mb 55f 52f
7:00am 9ft 12s 13 18 mph 1008.3mb 55f 51f
6:00am 10ft 12s 9 11 mph 1008.3mb 55f 52f
5:00am 9ft 12s 11 13 mph 1008.1mb 55f 51f
4:00am 9.5ft 12s 11 16 mph 1007.7mb 55f 50f
3:00am 9ft 11s 16 22 mph 1007.2mb 55f 52f
2:00am 9.5ft 12s 11 13 mph 1006.7mb 55f 53f
1:00am 10ft 11s 11 13 mph 1005.9mb 55f 52f
12:00am 10ft 12s 13 16 mph 1005.3mb 55f 52f
Tue 10/28 11:00pm 10ft 13s 16 20 mph 1004.4mb 55f 52f
10:00pm 10ft 13s 16 20 mph 1003.4mb 55f 52f
9:00pm 11ft 10s 16 22 mph 1002mb 55f 52f
8:00pm 11ft 12s 20 25 mph 1000.8mb 55f 52f
7:00pm 11ft 13s 20 27 mph 999.7mb 55f 53f
6:00pm 11ft 10s 20 27 mph 998.4mb 55f 52f
5:00pm 10.5ft 13s 18 25 mph 997.1mb 55f 52f
4:00pm 11ft 11s 20 25 mph 995.8mb 55f 52f
3:00pm 10.5ft 12s 18 22 mph 994.8mb 55f 52f
2:00pm 11ft 12s 18 22 mph 993.8mb 55f 52f
1:00pm 12ft 11s 13 18 mph 992.7mb 55f 54f
12:00pm 13ft 11s 13 18 mph 991.8mb 55f 54f
11:00am 13.5ft 12s 11 18 mph 991mb 55f 54f
10:00am 13.5ft 13s 11 16 mph 990.2mb 55f 53f
9:00am 14ft 12s 13 16 mph 989.4mb 55f 54f
8:00am 14ft 10s 13 16 mph 988.6mb 55f 54f
7:00am 15ft 12s 11 13 mph 988.2mb 55f 54f
6:00am 14ft 13s 13 18 mph 987.8mb 55f 54f
5:00am 15ft 10s 9 13 mph 987.5mb 55f 54f
4:00am 16ft 11s 9 13 mph 987.5mb 55f 54f
3:00am 16ft 12s 13 18 mph 987.9mb 55f 54f
2:00am 15.5ft 11s 13 16 mph 988.3mb 55f 54f
1:00am 15.5ft 11s 13 18 mph 988.5mb 55f 55f
12:00am 16ft 11s 13 18 mph 988.8mb 55f 55f
Mon 10/27 11:00pm 15.5ft 11s 16 20 mph 989.4mb 55f 55f
10:00pm 17.5ft 12s 13 20 mph 989.8mb 55f 55f
9:00pm 19ft 12s 16 20 mph 989.7mb 55f 55f
8:00pm 18ft 11s 16 22 mph 989.7mb 56f 54f
7:00pm 18.5ft 11s 29 36 mph 990mb 55f 54f
6:00pm 18.5ft 11s 27 36 mph 991.2mb 55f 54f
5:00pm 18ft 10s 31 43 mph 992.2mb 55f 54f
4:00pm 17ft 8s 34 47 mph 993.4mb 55f 54f
3:00pm 14ft 8s 36 45 mph 994mb 56f 53f
2:00pm 12ft 8s 38 47 mph 996mb 56f 52f
1:00pm 10.5ft 7s 36 47 mph 997.8mb 55f 52f
12:00pm 9ft 7s 36 45 mph 999.6mb 55f 52f
11:00am 7.5ft 6s 34 40 mph 1001.6mb 56f 53f
10:00am 7ft 5s 34 38 mph 1002.8mb 56f 52f
9:00am 6ft 5s 29 36 mph 1004.2mb 56f 52f
8:00am 5ft 5s 27 36 mph 1005.1mb 56f 52f
7:00am 4.5ft 4s 22 29 mph 1006.5mb 56f 52f
6:00am 4.5ft 11s 22 25 mph 1007.7mb 55f 52f
5:00am 4.5ft 11s 18 22 mph 1008.7mb 55f 52f
4:00am 4.5ft 8s 18 22 mph 1009.6mb 55f 53f
3:00am 4.5ft 11s 20 22 mph 1010.8mb 55f 53f
2:00am 4.5ft 10s 16 20 mph 1011.6mb 55f 53f
1:00am 4ft 12s 13 18 mph 1012.3mb 56f 53f
12:00am 4.5ft 12s 13 16 mph 1012.9mb 56f 52f
Sun 10/26 11:00pm 5ft 11s 11 13 mph 1013.3mb 56f 52f
10:00pm 5ft 12s 9 13 mph 1013.8mb 56f 52f
9:00pm 5ft 11s 7 11 mph 1014.3mb 55f 52f
8:00pm 5.5ft 12s 7 9 mph 1014.6mb 56f 51f
7:00pm 6ft 12s 4 7 mph 1014.9mb 56f 52f
6:00pm 6ft 13s 4 7 mph 1015mb 56f 51f
5:00pm 6.5ft 13s 2 4 mph 1015.1mb 56f 52f
4:00pm 6.5ft 14s 7 9 mph 1015.2mb 55f 52f
3:00pm 7ft 14s 7 9 mph 1015mb 55f 51f